Cocoa, FL (32922)

9:37 AM EDT on October 23, 2017 (GMT -0400)
Shakespear park | | Change Station
Active Advisory: Flood Warning

Elev 20 ft 28.36 °N, 80.77 °W | Updated 10 seconds ago

Mostly Cloudy
Mostly Cloudy
81.7 °F
Feels Like 89 °F
N
4.0
Wind Variable Wind from South

Today
High -- | Low -- °F
--% Chance of Precip.
Yesterday
High -- | Low -- °F
Precip. -- in
Pressure 30.07 in
Visibility 7.0 miles
Clouds Scattered Clouds 5000 ft
Heat Index 89 °F
Dew Point 76 °F
Humidity 83%
Rainfall 0.00 in
Snow Depth Not available.
7:28 AM 6:45 PM
Waxing Crescent, 13% visible
METAR KTIX 231247Z 17006KT 7SM SCT050 27/25 A3007
Pressure 30.07 in
Visibility 7.0 miles
Clouds Scattered Clouds 5000 ft
Heat Index 89 °F
Dew Point 76 °F
Humidity 83%
Rainfall 0.00 in
Snow Depth Not available.
7:28 AM 6:45 PM
Waxing Crescent, 13% visible
METAR KTIX 231247Z 17006KT 7SM SCT050 27/25 A3007

Get Your Daily Forecast Email!

Thanks for signing up!

Be on the lookout for a verification email in your inbox.

You'll start receiving severe weather alerts in your inbox..

×

10-Day Weather Forecast

Almanac

Astronomy

Oct. 23, 2017 Rise Set
Actual Time
Civil Twilight
Nautical Twilight
Astronomical Twilight
Moon
Length of Visible Light
Length of Day
Tomorrow will be .
, % of the Moon is Illuminated

Today's Extremes

State Highs State Lows

Community

WunderPhotos

Category 6

Welcome to Category 6. This is the collective home for Weather Underground's featured writeups by Dr. Jeff Masters (right), Bob Henson (left), Chris Burt, and other regular contributors.

Nearby

Air Quality

  Air Quality AQ Index Pollutant
Not available.

Snow Depth

Station Depth Elevation

Earthquake Activity

City Distance Mag. Time & Date
Minimum magnitude displayed is 2.5.

Coastal Water Temperatures

Place Temperature

Stations

Nearby Weather Stations

Station Location Temp. Windchill Dew Point Humidity Wind Precip. Elev Updated Type
                   

Watches & Warnings

Flood Warning
Issued: 10:37 AM EDT Oct. 22, 2017 – National Weather Service

The Flood Warning continues for
the St. Johns River near Cocoa 9w.
* Moderate flooding is occurring and moderate flooding is forecast.

*At 16.7 feet, water covers yards... encroaches on homes and may enter
low lying homes along the St Johns River in the Lake Poinsett area.



             Fld observed forecast 7 am EST/8 am EDT
location stg stg day time Mon Tue Wed Thu Fri

St. Johns River
Cocoa 9w 16.2 16.8 sun 10 am 16.7 16.6 16.6 16.5 16.4



Lat... Lon 2805 8072 2835 8080 2855 8090 2854 8099